Terminal Aerodrome Forecast
Issued by NWS Tampa Bay Area, FL

Current Version | Previous Version | Text Only | Print | Product List | Glossary On
Versions: 1 2 3 4 5 6 7 8 9 10 11 12 13 14 15 16 17 18 19 20 21 22 23 24 25 26 27
000
FTUS42 KTBW 031121
TAFTPA
TAF
KTPA 031121Z 0312/0412 VRB04KT P6SM SCT025 SCT250
     FM031500 26007KT P6SM SCT030 SCT250
     FM031900 29008KT P6SM SCT040 SCT250
     FM040000 29005KT P6SM FEW040 SCT250
     FM040900 28004KT P6SM VCSH SCT030 SCT100=

USA.gov is the U.S. government's official web portal to all federal, state and local government web resources and services.